Time;durP1;ratioP1;P1;durP2;ratioP2;P2;SDS_P1;SDS_P2;PMS_P1;PMS_P2;Temp;Humidity;BMP_temperature;BMP_pressure;BME280_temperature;BME280_humidity;BME280_pressure;Samples;Min_cycle;Max_cycle;Signal;HPM_P1;HPM_P2
2022/09/22 00:02:00;;;;;;;;;;;;;;;8.60;69.91;101379.22;10268863;28;20073;-77
2022/09/22 00:07:05;;;;;;;5.07;3.83;;;;;;;8.68;69.53;101384.13;10275530;28;20311;-77
2022/09/22 00:12:07;;;;;;;11.93;4.30;;;;;;;8.41;69.37;101384.69;10272332;28;20509;-77
2022/09/22 00:17:11;;;;;;;6.53;4.70;;;;;;;8.21;70.01;101384.97;10285179;28;20071;-77
2022/09/22 00:22:15;;;;;;;9.43;5.07;;;;;;;8.07;70.36;101383.03;10284117;28;20047;-77
2022/09/22 00:27:18;;;;;;;7.28;4.40;;;;;;;8.04;70.71;101383.22;10279516;28;20395;-78
2022/09/22 00:32:20;;;;;;;;;;;;;;;7.99;71.04;101385.28;10291896;28;20055;-77
2022/09/22 00:37:25;;;;;;;7.32;4.32;;;;;;;7.99;70.63;101378.09;10281745;28;19991;-78
2022/09/22 00:42:27;;;;;;;5.88;4.18;;;;;;;7.98;70.37;101376.38;10282994;28;20070;-78
2022/09/22 00:47:34;;;;;;;6.43;4.50;;;;;;;7.99;69.90;101377.25;10277490;28;20118;-77
2022/09/22 00:52:46;;;;;;;4.13;3.72;;;;;;;8.01;68.93;101362.84;10268596;28;20054;-77
2022/09/22 00:57:52;;;;;;;7.23;3.67;;;;;;;7.91;69.06;101359.78;10274914;28;20126;-78
2022/09/22 01:02:59;;;;;;;6.40;4.30;;;;;;;7.81;68.93;101363.91;10296357;28;20047;-77
2022/09/22 01:08:03;;;;;;;5.97;3.95;;;;;;;7.81;68.84;101371.06;10287713;28;20568;-77
2022/09/22 01:13:20;;;;;;;12.80;5.10;;;;;;;7.78;69.26;101361.41;10273024;28;20125;-77
2022/09/22 01:18:33;;;;;;;4.70;4.05;;;;;;;7.72;69.23;101357.25;10283313;28;20066;-77
2022/09/22 01:24:16;;;;;;;6.75;3.97;;;;;;;7.72;69.10;101353.72;10272675;28;20122;-77
2022/09/22 01:29:52;;;;;;;5.70;3.97;;;;;;;7.68;69.69;101350.34;10257000;29;20078;-77
2022/09/22 01:35:04;;;;;;;10.13;4.03;;;;;;;7.62;69.59;101350.66;10276877;28;20053;-77
2022/09/22 01:40:12;;;;;;;5.78;3.95;;;;;;;7.54;69.33;101342.16;10264101;28;20137;-76
2022/09/22 01:45:18;;;;;;;6.53;4.00;;;;;;;7.52;69.12;101351.25;10273858;28;20069;-77
2022/09/22 01:50:27;;;;;;;8.60;4.28;;;;;;;7.44;69.08;101346.28;10278692;28;20074;-77
2022/09/22 01:55:33;;;;;;;3.95;3.50;;;;;;;7.37;69.04;101347.56;10273294;28;20078;-77
2022/09/22 02:00:40;;;;;;;8.18;3.97;;;;;;;7.34;69.47;101345.91;10271646;28;20138;-77
2022/09/22 02:05:47;;;;;;;5.70;3.63;;;;;;;7.30;69.23;101335.47;10288117;28;20039;-77
2022/09/22 02:10:53;;;;;;;6.63;3.80;;;;;;;7.29;69.22;101334.59;10291951;28;20493;-77
2022/09/22 02:16:02;;;;;;;5.05;4.10;;;;;;;7.24;69.34;101332.16;10285015;28;20050;-77
2022/09/22 02:21:06;;;;;;;4.63;4.00;;;;;;;7.20;69.53;101327.91;10291558;28;20050;-77
2022/09/22 02:26:11;;;;;;;4.55;3.45;;;;;;;7.21;69.82;101329.66;10291421;28;20046;-77
2022/09/22 02:31:15;;;;;;;7.35;4.07;;;;;;;7.17;69.76;101321.88;10284090;28;20142;-77
2022/09/22 02:36:38;;;;;;;7.25;3.63;;;;;;;7.14;70.21;101320.22;10282914;28;20047;-77
2022/09/22 02:41:56;;;;;;;6.50;3.83;;;;;;;7.09;69.97;101314.25;10298416;28;20098;-77
2022/09/22 02:47:03;;;;;;;6.40;3.80;;;;;;;6.85;70.25;101319.84;10253741;29;20075;-77
2022/09/22 02:52:12;;;;;;;5.38;3.50;;;;;;;6.72;70.66;101305.41;10254882;28;20113;-77
2022/09/22 02:57:15;;;;;;;6.13;3.58;;;;;;;6.73;70.61;101319.63;10274644;28;20125;-77
2022/09/22 03:02:18;;;;;;;6.15;3.80;;;;;;;6.77;70.43;101313.19;10280598;28;20050;-77
2022/09/22 03:07:22;;;;;;;4.07;3.50;;;;;;;6.83;70.14;101305.75;10267758;28;20035;-77
2022/09/22 03:12:25;;;;;;;5.70;3.58;;;;;;;6.80;69.74;101303.22;10276109;28;20077;-77
2022/09/22 03:17:28;;;;;;;;;;;;;;;6.78;69.68;101299.75;10282902;28;20101;-77
2022/09/22 03:22:32;;;;;;;8.10;3.83;;;;;;;6.76;69.65;101290.09;10279179;28;19961;-78
2022/09/22 03:27:35;;;;;;;5.85;3.15;;;;;;;6.72;69.80;101285.84;10261926;28;20059;-78
2022/09/22 03:32:38;;;;;;;4.13;3.45;;;;;;;6.67;70.05;101287.91;10262777;28;20109;-78
2022/09/22 03:37:42;;;;;;;5.40;3.60;;;;;;;6.73;70.25;101291.13;10273774;28;20047;-78
2022/09/22 03:42:45;;;;;;;6.78;3.60;;;;;;;6.71;70.44;101284.97;10284663;28;20050;-77
2022/09/22 03:47:48;;;;;;;7.00;3.53;;;;;;;6.61;70.53;101281.94;10300377;28;20050;-77
2022/09/22 03:52:52;;;;;;;3.60;3.30;;;;;;;6.59;70.24;101280.28;10276098;28;20050;-77
2022/09/22 03:57:55;;;;;;;4.80;3.67;;;;;;;6.49;69.86;101279.84;10278056;28;20050;-77
2022/09/22 04:02:58;;;;;;;5.15;3.58;;;;;;;6.46;70.01;101282.69;10283531;28;20051;-77
2022/09/22 04:08:03;;;;;;;3.90;3.25;;;;;;;6.27;70.48;101277.38;10268157;28;20051;-77
2022/09/22 04:13:06;;;;;;;4.20;3.25;;;;;;;6.34;70.78;101275.28;10273126;28;20066;-77
2022/09/22 04:18:09;;;;;;;7.88;4.30;;;;;;;6.38;71.34;101276.84;10280704;28;20521;-79
2022/09/22 04:23:16;;;;;;;7.03;3.70;;;;;;;6.44;71.21;101270.34;10257113;28;20047;-77
2022/09/22 04:28:19;;;;;;;4.78;3.33;;;;;;;6.43;70.79;101260.63;10277671;28;20074;-77
2022/09/22 04:33:22;;;;;;;5.88;3.45;;;;;;;6.39;70.65;101266.13;10286866;28;20053;-78
2022/09/22 04:38:26;;;;;;;5.97;4.20;;;;;;;6.38;70.69;101266.19;10261580;28;20090;-78
2022/09/22 04:43:29;;;;;;;5.45;4.10;;;;;;;6.33;71.88;101261.06;10276981;28;20081;-78
2022/09/22 04:48:32;;;;;;;7.93;3.90;;;;;;;6.26;72.55;101250.78;10284256;28;20047;-78
2022/09/22 04:53:36;;;;;;;7.93;4.30;;;;;;;6.11;73.28;101255.06;10290038;28;20051;-78
2022/09/22 04:58:39;;;;;;;6.85;4.47;;;;;;;6.09;73.53;101252.47;10283769;28;20043;-78
2022/09/22 05:03:42;;;;;;;7.53;4.25;;;;;;;6.13;73.55;101258.50;10257806;28;20094;-78
2022/09/22 05:08:46;;;;;;;7.25;4.03;;;;;;;6.15;73.47;101259.31;10264781;28;20050;-78
2022/09/22 05:13:49;;;;;;;6.53;4.22;;;;;;;6.21;73.57;101263.47;10276709;28;20394;-78
2022/09/22 05:18:52;;;;;;;4.25;3.63;;;;;;;6.26;73.34;101267.66;10272417;28;20042;-78
2022/09/22 05:23:57;;;;;;;4.93;3.17;;;;;;;6.22;72.94;101263.38;10272887;28;20038;-78
2022/09/22 05:29:00;;;;;;;5.45;3.97;;;;;;;6.27;72.98;101269.38;10278122;28;20043;-78
2022/09/22 05:34:02;;;;;;;4.80;3.90;;;;;;;6.36;72.88;101271.59;10276747;28;20055;-78
2022/09/22 05:39:07;;;;;;;6.15;3.90;;;;;;;6.36;72.93;101266.28;10281983;28;20485;-78
2022/09/22 05:44:09;;;;;;;6.15;2.75;;;;;;;6.34;73.56;101281.50;10289301;28;20075;-78
2022/09/22 05:49:12;;;;;;;10.15;2.70;;;;;;;6.73;74.38;101269.75;10282798;28;20441;-78
2022/09/22 05:54:16;;;;;;;;;;;;;;;7.18;72.82;101272.81;10292990;28;20468;-79
2022/09/22 05:59:25;;;;;;;3.35;1.98;;;;;;;7.52;71.19;101273.72;10289926;28;19926;-79
2022/09/22 06:04:27;;;;;;;4.82;2.40;;;;;;;7.73;70.10;101278.75;10267255;28;20067;-79
2022/09/22 06:09:32;;;;;;;5.18;2.30;;;;;;;7.89;69.21;101269.84;10283826;28;20551;-79
2022/09/22 06:14:35;;;;;;;7.78;3.17;;;;;;;8.15;68.24;101265.72;10308505;28;20090;-80
2022/09/22 06:19:37;;;;;;;;;;;;;;;8.28;67.81;101271.22;10301818;28;20049;-79
2022/09/22 06:24:42;;;;;;;5.88;2.70;;;;;;;8.56;67.82;101271.41;10285143;28;19922;-80
2022/09/22 06:29:45;;;;;;;4.50;2.38;;;;;;;9.00;67.07;101269.72;10290398;28;20051;-79
2022/09/22 06:34:50;;;;;;;3.38;2.20;;;;;;;9.23;65.99;101274.53;10302270;28;20452;-79
2022/09/22 06:39:54;;;;;;;8.80;3.20;;;;;;;9.60;65.21;101272.25;10278225;28;20051;-78
2022/09/22 06:44:57;;;;;;;9.80;4.18;;;;;;;9.86;64.64;101267.94;10288946;28;20093;-79
2022/09/22 06:50:04;;;;;;;;;;;;;;;10.04;63.97;101263.22;10289213;28;20512;-77
2022/09/22 06:55:09;;;;;;;12.30;4.60;;;;;;;10.14;63.86;101268.81;10325570;28;19972;-79
2022/09/22 07:00:13;;;;;;;8.65;5.15;;;;;;;10.24;63.65;101267.28;10301312;28;20043;-78
2022/09/22 07:05:20;;;;;;;11.85;4.90;;;;;;;10.59;63.52;101264.06;10324460;28;20058;-78
2022/09/22 07:10:24;;;;;;;9.77;5.15;;;;;;;10.85;63.02;101267.66;10295450;28;20039;-78
2022/09/22 07:15:28;;;;;;;9.23;4.97;;;;;;;11.15;62.22;101269.25;10291483;28;20050;-78
2022/09/22 07:20:32;;;;;;;13.95;5.25;;;;;;;11.52;61.91;101267.53;10297252;28;20105;-78
2022/09/22 07:25:36;;;;;;;10.75;5.38;;;;;;;11.91;61.10;101266.50;10300001;28;20043;-78
2022/09/22 07:30:40;;;;;;;10.52;4.97;;;;;;;11.81;60.44;101265.44;10281644;28;20047;-78
2022/09/22 07:35:43;;;;;;;6.60;4.43;;;;;;;12.01;60.47;101261.28;10283943;28;20047;-79
2022/09/22 07:40:53;;;;;;;;;;;;;;;12.29;58.93;101264.69;10298058;28;20031;-78
2022/09/22 07:45:56;;;;;;;8.57;4.10;;;;;;;12.34;58.70;101254.41;10279795;28;19931;-78
2022/09/22 07:50:59;;;;;;;6.35;4.53;;;;;;;12.60;60.04;101256.00;10286555;28;20098;-81
2022/09/22 07:56:06;;;;;;;9.48;3.85;;;;;;;13.08;57.66;101260.41;10273611;28;20055;-79
2022/09/22 08:01:09;;;;;;;6.40;3.90;;;;;;;13.69;57.11;101261.00;10278611;28;20047;-78
2022/09/22 08:06:14;;;;;;;3.90;3.55;;;;;;;14.25;55.96;101257.34;10294039;28;20159;-78
2022/09/22 08:11:21;;;;;;;5.38;3.50;;;;;;;14.44;54.48;101253.16;10295804;28;20053;-78
2022/09/22 08:16:27;;;;;;;9.10;4.05;;;;;;;14.52;55.30;101256.06;10288637;28;20051;-78
2022/09/22 08:21:34;;;;;;;7.85;3.78;;;;;;;14.71;54.41;101256.22;10275299;28;20051;-79
2022/09/22 08:26:39;;;;;;;6.65;3.80;;;;;;;14.66;53.81;101253.06;10279405;28;20039;-77
2022/09/22 08:31:48;;;;;;;8.05;3.97;;;;;;;15.10;53.29;101242.97;10288524;28;20054;-78
2022/09/22 08:36:51;;;;;;;6.03;3.53;;;;;;;15.35;53.55;101243.56;10255560;29;20082;-78
2022/09/22 08:42:04;;;;;;;6.65;3.67;;;;;;;15.67;51.92;101240.72;10259269;28;20073;-78
2022/09/22 08:51:50;;;;;;;5.53;3.38;;;;;;;15.91;53.11;101243.94;10274027;28;20106;-77
2022/09/22 08:52:45;;;;;;;7.17;3.80;;;;;;;16.54;50.64;101234.66;10290472;28;20070;-78
2022/09/22 08:58:06;;;;;;;8.32;3.25;;;;;;;16.84;49.63;101236.34;10290396;28;20039;-78
2022/09/22 09:03:26;;;;;;;5.60;2.78;;;;;;;17.40;49.08;101240.94;10283512;28;20521;-78
2022/09/22 09:09:03;;;;;;;5.82;2.60;;;;;;;17.57;48.24;101238.47;10283217;28;20066;-78
2022/09/22 09:14:23;;;;;;;5.45;2.30;;;;;;;17.53;47.19;101237.06;10271252;28;20043;-77
2022/09/22 09:19:32;;;;;;;5.47;2.17;;;;;;;17.48;47.21;101234.78;10248687;28;20039;-77
2022/09/22 09:24:39;;;;;;;3.58;1.70;;;;;;;17.63;46.92;101235.13;10265340;28;20125;-77
2022/09/22 09:30:10;;;;;;;5.68;2.45;;;;;;;17.97;45.77;101229.13;10274560;28;20043;-77
2022/09/22 09:35:14;;;;;;;7.57;2.33;;;;;;;18.35;45.64;101223.44;10275508;28;20477;-77
2022/09/22 09:40:20;;;;;;;7.78;2.35;;;;;;;18.63;44.89;101234.22;10285820;28;20040;-77
2022/09/22 09:52:19;;;;;;;2.95;1.10;;;;;;;19.04;41.81;101218.25;10309190;28;20047;-76
2022/09/22 09:57:23;;;;;;;7.90;1.15;;;;;;;19.07;41.86;101209.75;10301072;28;20115;-77
2022/09/22 10:02:31;;;;;;;4.00;1.80;;;;;;;19.50;42.48;101209.81;10307136;28;20046;-76
2022/09/22 10:07:43;;;;;;;2.25;1.08;;;;;;;19.97;40.16;101206.66;10314368;28;20046;-76
2022/09/22 10:12:46;;;;;;;2.60;1.10;;;;;;;19.94;40.71;101198.78;10317400;28;20053;-76
2022/09/22 10:17:48;;;;;;;3.05;1.15;;;;;;;20.76;39.87;101186.09;10314621;28;20053;-76
2022/09/22 10:22:53;;;;;;;2.55;0.98;;;;;;;21.07;38.92;101185.41;10319783;28;20499;-77
2022/09/22 10:28:02;;;;;;;2.70;1.05;;;;;;;20.88;38.16;101182.00;10309295;28;20046;-76
2022/09/22 10:33:17;;;;;;;2.13;1.25;;;;;;;20.87;39.43;101172.09;10319481;28;20129;-75
2022/09/22 10:38:23;;;;;;;1.38;1.00;;;;;;;20.89;39.20;101164.56;10311300;28;20039;-76
2022/09/22 10:43:36;;;;;;;2.58;1.23;;;;;;;21.48;38.16;101156.06;10313314;28;20393;-77
2022/09/22 10:48:45;;;;;;;1.90;1.08;;;;;;;21.80;37.59;101146.91;10308413;28;20044;-76
2022/09/22 10:54:12;;;;;;;2.10;1.00;;;;;;;22.61;36.38;101165.66;10304193;28;20554;-76
2022/09/22 10:59:38;;;;;;;2.65;0.90;;;;;;;22.25;35.28;101142.47;10312595;28;20045;-76
2022/09/22 11:04:54;;;;;;;3.60;0.98;;;;;;;18.91;41.10;101150.59;10313900;28;20070;-76
2022/09/22 11:15:46;;;;;;;1.92;1.00;;;;;;;19.71;40.01;101139.41;10324577;28;20081;-80
2022/09/22 11:20:56;;;;;;;2.58;0.90;;;;;;;19.56;40.27;101133.75;10310548;28;20052;-80
2022/09/22 11:26:17;;;;;;;2.20;0.90;;;;;;;19.13;40.70;101140.19;10318774;28;20141;-78
2022/09/22 11:31:36;;;;;;;0.85;0.77;;;;;;;21.90;36.39;101124.75;10309624;28;20124;-79
2022/09/22 11:36:47;;;;;;;2.45;1.30;;;;;;;25.26;31.01;101115.69;10313780;28;20053;-79
2022/09/22 11:42:09;;;;;;;2.30;1.02;;;;;;;24.95;29.84;101107.84;10313868;28;20048;-79
2022/09/22 11:47:41;;;;;;;3.65;0.77;;;;;;;23.18;31.21;101115.78;10309403;28;20053;-79
2022/09/22 11:53:00;;;;;;;1.92;0.70;;;;;;;21.45;33.72;101113.56;10297044;28;20537;-78
2022/09/22 11:58:09;;;;;;;2.60;1.17;;;;;;;18.85;39.16;101115.03;10324998;28;20047;-77
2022/09/22 12:03:17;;;;;;;2.25;0.90;;;;;;;18.20;38.84;101113.47;10317421;28;20047;-78
2022/09/22 12:08:22;;;;;;;2.78;0.63;;;;;;;18.15;39.10;101110.38;10322796;28;20121;-78
2022/09/22 12:13:28;;;;;;;2.17;0.75;;;;;;;18.64;39.07;101102.59;10312753;28;20144;-78
2022/09/22 12:18:41;;;;;;;1.20;0.50;;;;;;;18.59;38.97;101096.78;10302195;28;20038;-78
2022/09/22 12:23:48;;;;;;;2.85;0.85;;;;;;;18.72;37.50;101083.59;10318939;28;20050;-78
2022/09/22 12:28:56;;;;;;;2.38;0.73;;;;;;;19.03;38.10;101072.22;10326592;28;20774;-78
2022/09/22 12:33:59;;;;;;;1.23;0.70;;;;;;;20.44;36.84;101078.66;10318266;28;20077;-79
2022/09/22 12:39:17;;;;;;;2.63;0.80;;;;;;;25.11;30.68;101055.31;10320485;28;20340;-77
2022/09/22 12:44:24;;;;;;;2.35;0.95;;;;;;;25.71;27.32;101060.22;10323561;28;20066;-77
2022/09/22 12:49:27;;;;;;;1.20;0.75;;;;;;;27.01;26.75;101046.84;10327459;28;20042;-77
2022/09/22 12:54:37;;;;;;;1.75;0.63;;;;;;;21.63;31.97;101057.75;10322014;28;20046;-79
2022/09/22 13:00:06;;;;;;;1.92;1.15;;;;;;;19.46;35.92;101062.16;10322094;28;20056;-78
2022/09/22 13:05:32;;;;;;;1.83;0.55;;;;;;;19.37;35.55;101041.38;10314233;28;20161;-78
2022/09/22 13:10:41;;;;;;;3.58;0.90;;;;;;;19.53;35.87;101043.28;10336156;28;20474;-77
2022/09/22 13:16:01;;;;;;;1.75;0.50;;;;;;;19.27;36.31;101046.97;10308654;28;20070;-78
2022/09/22 13:21:19;;;;;;;2.05;0.65;;;;;;;19.68;36.95;101039.75;10313181;28;20058;-78
2022/09/22 13:26:24;;;;;;;2.58;1.40;;;;;;;24.96;28.32;101025.22;10321995;28;20133;-79
2022/09/22 13:31:35;;;;;;;0.88;0.35;;;;;;;29.14;24.88;101012.91;10320705;28;20039;-80
2022/09/22 13:36:38;;;;;;;1.13;0.60;;;;;;;24.50;27.84;101019.47;10293395;28;20495;-81
2022/09/22 13:41:46;;;;;;;1.75;0.80;;;;;;;21.23;31.88;101016.84;10301238;28;20126;-78
2022/09/22 13:46:50;;;;;;;4.07;1.65;;;;;;;19.69;35.13;101013.34;10312907;28;20470;-79
2022/09/22 13:51:57;;;;;;;1.23;0.95;;;;;;;19.87;35.91;101008.59;10329175;28;20046;-79
2022/09/22 13:57:02;;;;;;;1.92;0.88;;;;;;;19.92;36.49;101012.72;10320581;28;20118;-79
2022/09/22 14:02:08;;;;;;;1.60;0.82;;;;;;;21.31;34.43;101002.28;10297154;28;20047;-80
2022/09/22 14:07:12;;;;;;;2.65;0.70;;;;;;;24.68;28.93;100991.47;10307927;28;20045;-79
2022/09/22 14:12:16;;;;;;;1.75;0.60;;;;;;;26.75;26.50;100979.69;10309929;28;20508;-80
2022/09/22 14:17:25;;;;;;;2.17;0.90;;;;;;;23.55;28.86;100987.78;10323183;28;20042;-79
2022/09/22 14:22:31;;;;;;;2.88;0.90;;;;;;;20.87;32.77;100991.00;10324146;28;20518;-79
2022/09/22 14:27:44;;;;;;;2.42;0.50;;;;;;;19.85;34.84;100982.53;10321117;28;20142;-79
2022/09/22 14:32:51;;;;;;;4.85;0.60;;;;;;;19.86;36.07;100973.34;10315914;28;20118;-79
2022/09/22 14:37:55;;;;;;;1.40;0.68;;;;;;;19.36;36.64;100971.56;10297494;28;20441;-80
2022/09/22 14:43:23;;;;;;;0.98;0.60;;;;;;;19.19;36.20;100968.81;10305906;28;20431;-76
2022/09/22 14:48:32;;;;;;;1.52;0.77;;;;;;;19.29;36.98;100957.78;10318166;28;20042;-79
2022/09/22 14:53:42;;;;;;;2.78;0.73;;;;;;;19.28;37.05;100953.34;10316645;28;20130;-79
2022/09/22 14:58:51;;;;;;;1.15;0.73;;;;;;;19.19;38.01;100952.47;10308322;28;20050;-79
2022/09/22 15:03:59;;;;;;;2.90;0.77;;;;;;;19.27;37.10;100942.63;10301878;28;20054;-79
2022/09/22 15:09:04;;;;;;;2.80;0.90;;;;;;;18.98;37.53;100942.06;10332889;28;20069;-78
2022/09/22 15:14:41;;;;;;;4.57;1.58;;;;;;;18.56;38.72;100942.03;10324447;28;20050;-77
2022/09/22 15:19:49;;;;;;;2.65;0.70;;;;;;;18.29;38.89;100943.06;10319768;28;20038;-79
2022/09/22 15:24:52;;;;;;;2.10;1.00;;;;;;;19.21;37.81;100931.38;10313343;28;20060;-78
2022/09/22 15:29:56;;;;;;;4.88;0.82;;;;;;;20.54;35.51;100925.66;10316027;28;20125;-81
2022/09/22 15:35:00;;;;;;;1.52;0.70;;;;;;;20.95;34.79;100919.97;10334963;28;20043;-80
2022/09/22 15:40:15;;;;;;;1.67;0.70;;;;;;;20.93;34.73;100912.00;10305662;28;20126;-80
2022/09/22 15:45:21;;;;;;;2.92;1.27;;;;;;;20.74;34.71;100917.91;10316880;28;20538;-79
2022/09/22 15:50:29;;;;;;;22.83;9.27;;;;;;;20.25;35.69;100912.59;10317511;28;20495;-79
2022/09/22 15:55:33;;;;;;;37.80;9.85;;;;;;;19.49;37.11;100911.13;10322618;28;20050;-78
2022/09/22 16:00:37;;;;;;;10.52;3.15;;;;;;;18.46;39.12;100908.69;10317060;28;20057;-78
2022/09/22 16:05:43;;;;;;;84.35;37.13;;;;;;;18.10;39.63;100912.41;10314877;28;20070;-79
2022/09/22 16:10:46;;;;;;;12.25;6.65;;;;;;;18.16;39.67;100910.06;10317510;28;20038;-77
2022/09/22 16:15:50;;;;;;;15.52;9.95;;;;;;;17.86;40.45;100901.34;10338763;28;20046;-78
2022/09/22 16:21:04;;;;;;;6.72;3.22;;;;;;;17.74;40.66;100895.28;10326605;28;20043;-81
2022/09/22 16:26:07;;;;;;;3.40;1.40;;;;;;;18.18;40.64;100895.25;10305102;28;20122;-79
2022/09/22 16:31:12;;;;;;;2.58;0.80;;;;;;;18.21;39.94;100889.53;10306806;28;20069;-79
2022/09/22 16:36:16;;;;;;;2.72;1.33;;;;;;;18.20;40.42;100890.53;10310707;28;20125;-79
2022/09/22 16:41:20;;;;;;;3.67;1.23;;;;;;;18.00;40.61;100887.19;10295116;28;20043;-79
2022/09/22 16:46:28;;;;;;;3.72;1.02;;;;;;;17.73;41.10;100885.44;10305904;28;20342;-79
2022/09/22 16:51:35;;;;;;;2.30;0.90;;;;;;;17.29;41.89;100895.47;10314836;28;20042;-79
2022/09/22 16:56:38;;;;;;;1.63;0.60;;;;;;;16.81;42.92;100890.22;10317881;28;20073;-78
2022/09/22 17:01:42;;;;;;;3.55;1.17;;;;;;;16.49;43.52;100892.53;10321081;28;20050;-77
2022/09/22 17:06:47;;;;;;;2.25;0.80;;;;;;;16.19;43.72;100890.94;10323243;28;20069;-79
2022/09/22 17:11:51;;;;;;;2.28;0.95;;;;;;;15.98;44.72;100881.16;10320195;28;20062;-80
2022/09/22 17:16:56;;;;;;;2.80;1.15;;;;;;;15.74;44.95;100878.94;10311115;28;20046;-79
2022/09/22 17:22:00;;;;;;;44.30;15.95;;;;;;;15.56;45.44;100876.13;10301603;28;20043;-79
2022/09/22 17:27:04;;;;;;;9.57;5.30;;;;;;;15.41;45.67;100867.63;10321449;28;20125;-79
2022/09/22 17:32:07;;;;;;;5.68;3.08;;;;;;;15.18;46.42;100867.00;10323454;28;20078;-80
2022/09/22 17:37:14;;;;;;;5.85;3.88;;;;;;;15.01;46.69;100865.88;10313622;28;20051;-79
2022/09/22 17:42:17;;;;;;;24.05;15.73;;;;;;;14.90;47.23;100870.56;10317689;28;20050;-81
2022/09/22 17:58:08;;;;;;;14.45;8.35;;;;;;;14.60;47.85;100877.78;10250790;28;20085;-81
2022/09/22 18:03:11;;;;;;;144.57;60.45;;;;;;;14.50;48.15;100877.72;10322251;28;20078;-81
2022/09/22 18:08:16;;;;;;;45.72;25.15;;;;;;;14.40;48.29;100881.41;10319092;28;20052;-81
2022/09/22 18:13:19;;;;;;;9.23;5.93;;;;;;;14.26;49.11;100878.06;10322116;28;20066;-81
2022/09/22 18:18:22;;;;;;;11.48;4.15;;;;;;;14.10;49.52;100872.31;10318973;28;20073;-81
2022/09/22 18:23:27;;;;;;;4.22;3.25;;;;;;;14.02;49.85;100877.53;10327421;28;20133;-81
2022/09/22 18:28:30;;;;;;;4.18;2.85;;;;;;;14.01;49.88;100873.94;10330246;28;20101;-81
2022/09/22 18:33:35;;;;;;;4.18;2.70;;;;;;;13.92;50.58;100866.66;10313957;28;20470;-81
2022/09/22 18:38:41;;;;;;;4.57;2.10;;;;;;;13.83;50.67;100865.63;10333543;28;20042;-81
2022/09/22 18:43:44;;;;;;;3.00;1.90;;;;;;;13.72;51.13;100868.41;10337142;28;20098;-81
2022/09/22 18:48:48;;;;;;;5.88;1.90;;;;;;;13.62;51.57;100872.88;10320563;28;20094;-80
2022/09/22 18:53:53;;;;;;;5.47;2.03;;;;;;;13.54;51.93;100878.09;10319325;28;20078;-80
2022/09/22 18:58:56;;;;;;;5.10;1.90;;;;;;;13.46;52.39;100879.59;10311740;28;20039;-81
2022/09/22 19:03:58;;;;;;;;;;;;;;;13.40;52.91;100879.28;10320360;28;20126;-80
2022/09/22 19:09:02;;;;;;;2.47;2.00;;;;;;;13.30;53.17;100879.16;10310020;28;19928;-80
2022/09/22 19:14:06;;;;;;;3.58;2.00;;;;;;;13.20;53.34;100876.41;10309232;28;20046;-78
2022/09/22 19:19:09;;;;;;;3.55;2.20;;;;;;;13.16;53.50;100890.25;10346749;28;20039;-80
2022/09/22 19:24:13;;;;;;;4.78;2.67;;;;;;;13.10;54.02;100891.63;10320033;28;20043;-80
2022/09/22 19:29:16;;;;;;;3.63;2.25;;;;;;;13.11;54.46;100887.09;10311660;28;20045;-81
2022/09/22 19:34:19;;;;;;;4.60;2.35;;;;;;;13.04;54.35;100889.47;10310275;28;20121;-80
2022/09/22 19:39:24;;;;;;;5.43;2.92;;;;;;;13.01;54.68;100884.31;10319737;28;20475;-79
2022/09/22 19:44:28;;;;;;;4.75;2.10;;;;;;;12.94;54.77;100873.19;10306318;28;20047;-80
2022/09/22 19:49:31;;;;;;;5.45;2.78;;;;;;;12.85;55.22;100867.72;10311482;28;20050;-79
2022/09/22 19:54:35;;;;;;;3.63;3.17;;;;;;;12.75;55.79;100865.78;10319656;28;20130;-79
2022/09/22 19:59:38;;;;;;;6.28;3.50;;;;;;;12.65;56.11;100870.22;10302863;28;20050;-79
2022/09/22 20:04:41;;;;;;;3.85;3.22;;;;;;;12.61;56.25;100871.44;10301718;28;20114;-79
2022/09/22 20:09:45;;;;;;;6.47;3.67;;;;;;;12.50;56.61;100858.84;10301738;28;20046;-78
2022/09/22 20:14:50;;;;;;;4.30;3.20;;;;;;;12.40;56.88;100855.19;10302104;28;20042;-79
2022/09/22 20:19:54;;;;;;;6.15;2.80;;;;;;;12.25;57.43;100857.25;10305390;28;20563;-78
2022/09/22 20:25:00;;;;;;;5.45;3.95;;;;;;;12.14;57.79;100858.09;10309696;28;20121;-79
2022/09/22 20:30:05;;;;;;;5.60;3.78;;;;;;;12.06;58.03;100847.09;10306535;28;20055;-79
2022/09/22 20:35:10;;;;;;;3.20;2.90;;;;;;;12.07;57.88;100854.22;10297328;28;20407;-79
2022/09/22 20:40:19;;;;;;;6.07;3.15;;;;;;;12.01;58.32;100848.44;10299485;28;20081;-78
2022/09/22 20:45:23;;;;;;;3.38;3.08;;;;;;;11.91;58.47;100842.94;10295497;28;20074;-78
2022/09/22 20:50:26;;;;;;;4.95;3.15;;;;;;;11.80;58.69;100848.34;10289758;28;20043;-79
2022/09/22 20:55:30;;;;;;;3.70;2.72;;;;;;;11.77;58.78;100846.75;10309071;28;20038;-78
2022/09/22 21:00:33;;;;;;;7.85;4.68;;;;;;;11.70;59.12;100843.66;10314029;28;20076;-80
2022/09/22 21:05:36;;;;;;;5.13;4.63;;;;;;;11.69;59.15;100847.34;10302522;28;20049;-79
2022/09/22 21:10:40;;;;;;;5.65;4.57;;;;;;;11.62;59.27;100842.53;10295263;28;20474;-79
2022/09/22 21:15:43;;;;;;;5.85;3.65;;;;;;;11.63;59.34;100838.91;10305988;28;20122;-78
2022/09/22 21:20:46;;;;;;;30.67;17.77;;;;;;;11.54;59.63;100840.44;10330611;28;20043;-80
2022/09/22 21:25:57;;;;;;;10.43;6.65;;;;;;;11.48;59.59;100838.25;10320334;28;20126;-80
2022/09/22 21:31:01;;;;;;;4.38;3.45;;;;;;;11.42;60.07;100836.03;10306249;28;20129;-79
2022/09/22 21:36:07;;;;;;;7.55;3.67;;;;;;;11.41;60.50;100834.31;10319957;28;20507;-80
2022/09/22 21:41:13;;;;;;;6.63;4.68;;;;;;;11.42;60.57;100825.28;10327512;28;20098;-80
2022/09/22 21:46:17;;;;;;;8.07;5.63;;;;;;;11.39;60.58;100822.84;10320240;28;20130;-80
2022/09/22 21:51:21;;;;;;;7.90;5.18;;;;;;;11.35;60.78;100826.72;10320737;28;20499;-80
2022/09/22 21:56:26;;;;;;;8.82;3.80;;;;;;;11.28;60.74;100816.44;10313626;28;20042;-80
2022/09/22 22:01:31;;;;;;;4.63;3.40;;;;;;;11.25;60.99;100816.69;10330153;28;20082;-78
2022/09/22 22:06:38;;;;;;;11.65;7.85;;;;;;;11.24;60.96;100812.28;10334650;28;20072;-79
2022/09/22 22:11:45;;;;;;;5.65;4.80;;;;;;;11.19;60.88;100797.44;10331017;28;20039;-80
2022/09/22 22:16:49;;;;;;;6.03;5.22;;;;;;;11.15;60.95;100801.38;10319069;28;20130;-79
2022/09/22 22:21:53;;;;;;;9.95;3.42;;;;;;;11.14;61.02;100794.28;10327177;28;20592;-79
2022/09/22 22:27:00;;;;;;;6.47;3.13;;;;;;;11.01;61.37;100797.03;10321673;28;20109;-79
2022/09/22 22:32:04;;;;;;;5.40;3.65;;;;;;;10.87;61.81;100799.91;10327190;28;20051;-80
2022/09/22 22:37:08;;;;;;;6.07;3.13;;;;;;;10.90;61.76;100795.16;10318831;28;20550;-79
2022/09/22 22:42:13;;;;;;;6.95;3.30;;;;;;;10.82;61.85;100797.56;10336240;28;20443;-80
2022/09/22 22:47:15;;;;;;;6.25;3.33;;;;;;;10.69;62.35;100805.66;10334824;28;20042;-80
2022/09/22 22:52:18;;;;;;;4.72;3.45;;;;;;;10.65;62.61;100796.16;10337974;28;20066;-79
2022/09/22 22:57:23;;;;;;;9.27;3.42;;;;;;;10.59;62.71;100796.59;10321334;28;20051;-79
2022/09/22 23:02:25;;;;;;;4.35;3.05;;;;;;;10.54;62.63;100790.72;10327635;28;20054;-80
2022/09/22 23:07:28;;;;;;;;;;;;;;;10.54;62.72;100790.72;10338436;28;20058;-81
2022/09/22 23:12:33;;;;;;;5.57;3.03;;;;;;;10.50;62.69;100781.16;10332584;28;19949;-80
2022/09/22 23:17:36;;;;;;;5.35;3.17;;;;;;;10.41;62.79;100774.66;10334190;28;20046;-79
2022/09/22 23:22:38;;;;;;;;;;;;;;;10.33;62.99;100774.34;10329108;28;20038;-80
2022/09/22 23:27:47;;;;;;;5.82;3.42;;;;;;;10.31;63.06;100784.34;10318029;28;19945;-79
2022/09/22 23:32:50;;;;;;;4.97;3.00;;;;;;;10.23;63.16;100778.69;10341161;28;20070;-80
2022/09/22 23:37:53;;;;;;;;;;;;;;;10.16;63.16;100770.22;10337695;28;20393;-80
2022/09/22 23:42:58;;;;;;;5.05;2.63;;;;;;;10.09;63.35;100779.69;10331525;28;19957;-80
2022/09/22 23:48:01;;;;;;;5.25;2.65;;;;;;;10.08;63.37;100762.72;10331047;28;20058;-82
2022/09/22 23:53:04;;;;;;;4.90;2.53;;;;;;;10.08;63.33;100767.25;10342670;28;20065;-80
2022/09/22 23:58:08;;;;;;;;;;;;;;;10.07;63.26;100761.03;10328510;28;20436;-80
